createdAt,value
2023-04-13T00:02:28.016Z,0.30
2023-04-13T00:05:17.218Z,0.30
2023-04-13T00:08:06.057Z,0.35
2023-04-13T00:10:54.629Z,0.73
2023-04-13T00:13:43.247Z,1.10
2023-04-13T00:16:31.933Z,1.15
2023-04-13T00:19:19.640Z,0.40
2023-04-13T00:22:09.831Z,0.98
2023-04-13T00:25:00.092Z,0.80
2023-04-13T00:27:50.768Z,0.30
2023-04-13T00:30:38.617Z,0.43
2023-04-13T00:36:31.179Z,0.30
2023-04-13T00:39:23.336Z,0.30
2023-04-13T00:42:11.376Z,0.25
2023-04-13T00:44:59.046Z,0.20
2023-04-13T00:47:49.004Z,0.40
2023-04-13T00:50:37.348Z,0.85
2023-04-13T00:53:25.046Z,0.50
2023-04-13T00:56:13.400Z,0.50
2023-04-13T00:59:01.183Z,0.30
2023-04-13T01:01:56.661Z,0.43
2023-04-13T01:04:46.059Z,0.30
2023-04-13T01:07:57.882Z,0.15
2023-04-13T01:11:06.237Z,0.27
2023-04-13T01:14:31.841Z,0.25
2023-04-13T01:17:23.832Z,0.00
2023-04-13T01:20:16.545Z,0.65
2023-04-13T01:23:09.861Z,0.47
2023-04-13T01:26:01.787Z,0.38
2023-04-13T01:28:51.552Z,0.55
2023-04-13T01:31:40.842Z,0.32
2023-04-13T01:34:30.327Z,0.30
2023-04-13T01:37:18.375Z,0.20
2023-04-13T01:40:12.988Z,0.10
2023-04-13T01:43:05.117Z,0.20
2023-04-13T01:46:14.178Z,0.40
2023-04-13T01:49:31.077Z,0.63
2023-04-13T01:52:28.082Z,0.85
2023-04-13T01:55:16.461Z,1.13
2023-04-13T01:58:13.843Z,0.95
2023-04-13T02:01:08.045Z,0.50
2023-04-13T02:03:55.836Z,0.47
2023-04-13T02:09:36.221Z,0.60
2023-04-13T02:12:24.105Z,0.57
2023-04-13T02:15:11.928Z,0.98
2023-04-13T02:18:00.170Z,1.15
2023-04-13T02:20:47.867Z,1.00
2023-04-13T02:23:41.513Z,0.77
2023-04-13T02:26:29.535Z,0.95
2023-04-13T02:29:17.854Z,1.25
2023-04-13T02:32:07.409Z,1.02
2023-04-13T02:34:55.614Z,1.75
2023-04-13T02:37:43.452Z,1.55
2023-04-13T02:40:34.088Z,1.88
2023-04-13T02:43:22.568Z,2.83
2023-04-13T02:46:10.792Z,2.95
2023-04-13T02:49:00.368Z,2.63
2023-04-13T02:51:52.480Z,5.00
2023-04-13T02:54:47.285Z,4.47
2023-04-13T02:57:35.844Z,5.07
2023-04-13T03:00:26.044Z,4.72
2023-04-13T03:03:20.896Z,6.00
2023-04-13T03:06:10.235Z,4.82
2023-04-13T03:09:07.858Z,4.47
2023-04-13T03:12:03.976Z,4.07
2023-04-13T03:14:52.326Z,4.35
2023-04-13T03:17:44.219Z,5.80
2023-04-13T03:20:37.111Z,7.07
2023-04-13T03:23:24.724Z,7.05
2023-04-13T03:26:13.184Z,8.57
2023-04-13T03:29:01.578Z,6.93
2023-04-13T03:31:52.727Z,7.13
2023-04-13T03:34:44.551Z,6.32
2023-04-13T03:37:40.604Z,6.43
2023-04-13T03:40:36.634Z,8.23
2023-04-13T03:43:24.398Z,8.85
2023-04-13T03:46:21.037Z,9.18
2023-04-13T03:49:11.131Z,9.25
2023-04-13T03:51:59.507Z,7.43
2023-04-13T03:54:51.577Z,8.85
2023-04-13T03:57:39.421Z,7.13
2023-04-13T04:00:30.843Z,6.43
2023-04-13T04:03:30.645Z,5.55
2023-04-13T04:06:24.933Z,5.03
2023-04-13T04:09:20.941Z,4.85
2023-04-13T04:12:09.233Z,6.05
2023-04-13T04:15:01.473Z,5.28
2023-04-13T04:17:52.609Z,4.80
2023-04-13T04:20:40.499Z,6.50
2023-04-13T04:23:30.648Z,5.93
2023-04-13T04:26:26.000Z,5.22
2023-04-13T04:29:37.169Z,5.43
2023-04-13T04:32:42.802Z,5.40
2023-04-13T04:35:35.528Z,5.32
2023-04-13T04:41:21.169Z,5.13
2023-04-13T04:44:17.091Z,6.57
2023-04-13T04:47:06.209Z,7.35
2023-04-13T04:50:02.192Z,7.70
2023-04-13T04:52:54.695Z,7.40
2023-04-13T04:55:46.748Z,8.48
2023-04-13T04:58:46.756Z,7.55
2023-04-13T05:01:35.256Z,7.93
2023-04-13T05:04:29.222Z,7.10
2023-04-13T05:07:18.033Z,7.85
2023-04-13T05:10:29.824Z,9.88
2023-04-13T05:13:18.664Z,11.00
2023-04-13T05:16:16.824Z,7.93
2023-04-13T05:19:08.137Z,5.85
2023-04-13T05:22:07.163Z,3.92
2023-04-13T05:25:01.288Z,3.13
2023-04-13T05:27:50.397Z,2.70
2023-04-13T05:30:38.199Z,2.92
2023-04-13T05:33:26.778Z,4.18
2023-04-13T05:36:17.256Z,2.15
2023-04-13T05:39:06.212Z,3.15
2023-04-13T05:41:56.435Z,2.28
2023-04-13T05:44:46.816Z,2.08
2023-04-13T05:47:38.937Z,1.13
2023-04-13T05:50:31.740Z,1.08
2023-04-13T05:53:19.429Z,0.98
2023-04-13T05:56:11.335Z,0.70
2023-04-13T05:59:04.553Z,1.35
2023-04-13T06:01:53.794Z,0.50
2023-04-13T06:04:43.680Z,0.80
2023-04-13T06:07:32.100Z,0.80
2023-04-13T06:10:19.791Z,1.20
2023-04-13T06:13:08.475Z,0.80
2023-04-13T06:15:56.183Z,1.10
2023-04-13T06:18:43.852Z,0.95
2023-04-13T06:21:33.765Z,0.90
2023-04-13T06:24:21.457Z,1.77
2023-04-13T06:27:09.205Z,1.02
2023-04-13T06:30:00.352Z,1.75
2023-04-13T06:32:52.141Z,1.73
2023-04-13T06:35:42.746Z,1.73
2023-04-13T06:38:32.145Z,1.42
2023-04-13T06:41:25.518Z,2.03
2023-04-13T06:44:13.196Z,2.65
2023-04-13T06:47:17.980Z,2.75
2023-04-13T06:50:08.053Z,1.90
2023-04-13T06:53:00.109Z,1.60
2023-04-13T06:55:51.979Z,1.35
2023-04-13T06:58:40.134Z,1.33
2023-04-13T07:01:28.755Z,1.30
2023-04-13T07:04:18.100Z,1.45
2023-04-13T07:07:06.666Z,1.23
2023-04-13T07:09:54.724Z,1.25
2023-04-13T07:12:42.797Z,0.80
2023-04-13T07:15:31.826Z,0.80
2023-04-13T07:18:19.533Z,0.80
2023-04-13T07:21:09.306Z,0.50
2023-04-13T07:24:15.511Z,0.73
2023-04-13T07:27:04.728Z,2.05
2023-04-13T07:29:52.725Z,0.60
2023-04-13T07:32:43.649Z,0.57
2023-04-13T07:35:31.845Z,0.40
2023-04-13T07:38:24.016Z,0.40
2023-04-13T07:41:33.135Z,0.22
2023-04-13T07:44:24.873Z,0.55
2023-04-13T07:47:14.357Z,0.47
2023-04-13T07:50:06.475Z,0.45
2023-04-13T07:52:55.385Z,0.60
2023-04-13T07:55:44.672Z,0.03
2023-04-13T07:58:33.489Z,0.20
2023-04-13T08:01:22.335Z,0.28
2023-04-13T08:04:10.722Z,0.30
2023-04-13T08:07:07.503Z,0.50
2023-04-13T08:09:55.722Z,0.77
2023-04-13T08:12:44.011Z,0.43
2023-04-13T08:16:15.679Z,0.20
2023-04-13T08:19:06.900Z,0.30
2023-04-13T08:21:59.014Z,0.35
2023-04-13T08:24:46.640Z,0.70
2023-04-13T08:27:34.528Z,0.73
2023-04-13T08:30:23.080Z,0.10
2023-04-13T08:33:18.829Z,0.25
2023-04-13T08:36:07.892Z,0.30
2023-04-13T08:38:56.314Z,0.32
2023-04-13T08:41:48.764Z,0.20
2023-04-13T08:44:43.203Z,0.20
2023-04-13T08:47:31.839Z,0.73
2023-04-13T08:50:21.833Z,0.20
2023-04-13T08:53:13.087Z,0.10
2023-04-13T08:56:04.179Z,0.30
2023-04-13T08:58:59.236Z,0.10
2023-04-13T09:01:49.481Z,0.30
2023-04-13T09:04:44.388Z,0.15
2023-04-13T09:07:36.984Z,0.15
2023-04-13T09:10:31.353Z,0.25
2023-04-13T09:13:19.222Z,0.22
2023-04-13T09:16:07.609Z,0.28
2023-04-13T09:19:01.398Z,0.30
2023-04-13T09:21:51.088Z,0.30
2023-04-13T09:24:42.656Z,0.45
2023-04-13T09:27:30.430Z,0.40
2023-04-13T09:30:21.745Z,0.20
2023-04-13T09:33:11.372Z,0.10
2023-04-13T09:36:09.578Z,0.40
2023-04-13T09:38:58.334Z,0.20
2023-04-13T09:41:49.771Z,0.20
2023-04-13T09:44:37.616Z,0.50
2023-04-13T09:47:26.415Z,0.10
2023-04-13T09:50:28.246Z,0.25
2023-04-13T09:53:15.945Z,0.28
2023-04-13T09:56:03.907Z,0.10
2023-04-13T09:58:51.883Z,0.20
2023-04-13T10:01:41.312Z,0.35
2023-04-13T10:04:31.344Z,0.88
2023-04-13T10:07:19.918Z,0.40
2023-04-13T10:10:08.401Z,0.10
2023-04-13T10:12:59.337Z,0.25
2023-04-13T10:16:06.341Z,0.10
2023-04-13T10:19:08.102Z,0.20
2023-04-13T10:21:56.710Z,0.10
2023-04-13T10:24:44.958Z,0.03
2023-04-13T10:27:32.947Z,0.30
2023-04-13T10:30:22.219Z,0.10
2023-04-13T10:33:16.023Z,0.73
2023-04-13T10:36:03.803Z,0.30
2023-04-13T10:38:51.527Z,0.20
2023-04-13T10:41:39.271Z,0.00
2023-04-13T10:44:27.225Z,0.10
2023-04-13T10:47:19.223Z,0.00
2023-04-13T10:50:20.234Z,0.30
2023-04-13T10:53:09.359Z,0.15
2023-04-13T10:56:01.955Z,0.10
2023-04-13T10:58:54.313Z,0.20
2023-04-13T11:01:48.367Z,0.10
2023-04-13T11:04:50.139Z,0.17
2023-04-13T11:10:29.942Z,0.00
2023-04-13T11:13:22.650Z,0.20
2023-04-13T11:16:11.107Z,0.13
2023-04-13T11:19:03.758Z,0.10
2023-04-13T11:21:56.678Z,0.00
2023-04-13T11:24:46.132Z,0.10
2023-04-13T11:27:38.150Z,0.10
2023-04-13T11:30:27.060Z,0.30
2023-04-13T11:37:20.417Z,0.00
2023-04-13T11:40:20.584Z,0.00
2023-04-13T11:43:08.703Z,0.10
2023-04-13T11:45:56.528Z,0.10
2023-04-13T11:48:44.639Z,0.00
2023-04-13T11:51:33.391Z,0.50
2023-04-13T11:54:29.178Z,0.00
2023-04-13T11:57:18.365Z,0.00
2023-04-13T12:00:14.075Z,0.10
2023-04-13T12:03:34.671Z,0.00
2023-04-13T12:06:22.277Z,0.13
2023-04-13T12:09:15.817Z,0.25
2023-04-13T12:15:20.974Z,0.20
2023-04-13T12:18:15.736Z,0.00
2023-04-13T12:21:06.735Z,0.20
2023-04-13T12:24:02.027Z,0.30
2023-04-13T12:29:41.673Z,0.52
2023-04-13T12:32:30.844Z,0.10
2023-04-13T12:35:21.786Z,0.00
2023-04-13T12:41:33.912Z,0.05
2023-04-13T12:44:21.586Z,0.30
2023-04-13T12:47:09.234Z,0.22
2023-04-13T12:49:56.930Z,0.55
2023-04-13T12:52:44.744Z,0.00
2023-04-13T12:55:32.330Z,0.10
2023-04-13T12:58:20.065Z,0.10
2023-04-13T13:01:08.628Z,0.28
2023-04-13T13:03:56.359Z,1.27
2023-04-13T13:06:43.991Z,0.10
2023-04-13T13:09:32.283Z,0.00
2023-04-13T13:12:19.986Z,0.28
2023-04-13T13:15:10.760Z,0.30
2023-04-13T13:17:58.446Z,0.10
2023-04-13T13:20:46.306Z,0.00
2023-04-13T13:23:33.820Z,0.13
2023-04-13T13:26:24.330Z,4.55
2023-04-13T13:29:14.013Z,1.60
2023-04-13T13:32:01.759Z,0.52
2023-04-13T13:34:49.506Z,3.38
2023-04-13T13:37:37.517Z,0.60
2023-04-13T13:40:28.223Z,2.47
2023-04-13T13:43:18.263Z,0.10
2023-04-13T13:46:06.995Z,0.08
2023-04-13T13:52:03.997Z,0.10
2023-04-13T13:54:58.702Z,0.45
2023-04-13T13:57:49.440Z,0.10
2023-04-13T14:00:37.121Z,0.43
2023-04-13T14:03:25.004Z,0.17
2023-04-13T14:06:15.533Z,0.57
2023-04-13T14:09:03.968Z,0.20
2023-04-13T14:11:51.728Z,0.20
2023-04-13T14:14:39.464Z,0.65
2023-04-13T14:17:27.320Z,0.28
2023-04-13T14:20:15.829Z,0.17
2023-04-13T14:23:03.608Z,0.00
2023-04-13T14:25:51.221Z,0.73
2023-04-13T14:28:39.399Z,0.10
2023-04-13T14:31:27.071Z,0.17
2023-04-13T14:34:14.771Z,0.10
2023-04-13T14:37:02.348Z,0.35
2023-04-13T14:39:53.164Z,0.25
2023-04-13T14:42:41.393Z,0.13
2023-04-13T14:45:29.147Z,0.40
2023-04-13T14:48:17.812Z,0.63
2023-04-13T14:51:05.574Z,0.60
2023-04-13T14:53:56.534Z,0.40
2023-04-13T14:56:44.337Z,0.20
2023-04-13T14:59:32.236Z,0.20
2023-04-13T15:02:20.443Z,0.13
2023-04-13T15:05:09.052Z,0.22
2023-04-13T15:07:56.932Z,0.55
2023-04-13T15:10:48.334Z,0.10
2023-04-13T15:13:48.090Z,0.10
2023-04-13T15:16:36.810Z,0.20
2023-04-13T15:19:24.499Z,0.13
2023-04-13T15:22:12.065Z,0.10
2023-04-13T15:25:15.955Z,0.20
2023-04-13T15:28:07.506Z,0.30
2023-04-13T15:30:55.354Z,0.10
2023-04-13T15:33:53.768Z,0.20
2023-04-13T15:36:41.866Z,0.08
2023-04-13T15:39:31.788Z,0.40
2023-04-13T15:42:21.416Z,0.43
2023-04-13T15:45:09.733Z,0.20
2023-04-13T15:47:57.562Z,0.20
2023-04-13T15:50:45.135Z,0.32
2023-04-13T15:53:33.728Z,0.45
2023-04-13T15:56:21.715Z,0.13
2023-04-13T15:59:09.397Z,0.63
2023-04-13T16:01:57.249Z,0.20
2023-04-13T16:04:47.682Z,0.30
2023-04-13T16:07:35.843Z,0.32
2023-04-13T16:10:23.480Z,0.22
2023-04-13T16:13:19.136Z,0.63
2023-04-13T16:16:06.975Z,0.63
2023-04-13T16:18:55.117Z,0.85
2023-04-13T16:21:45.675Z,1.42
2023-04-13T16:24:33.902Z,1.30
2023-04-13T16:27:22.586Z,1.23
2023-04-13T16:30:13.078Z,1.85
2023-04-13T16:33:00.773Z,2.90
2023-04-13T16:35:48.480Z,2.38
2023-04-13T16:38:36.916Z,2.97
2023-04-13T16:41:24.490Z,3.50
2023-04-13T16:44:12.202Z,1.25
2023-04-13T16:46:59.858Z,0.90
2023-04-13T16:49:47.523Z,1.45
2023-04-13T16:52:35.865Z,1.08
2023-04-13T16:55:23.701Z,0.85
2023-04-13T16:58:12.468Z,1.05
2023-04-13T17:01:00.155Z,1.33
2023-04-13T17:03:47.840Z,2.35
2023-04-13T17:06:37.814Z,1.83
2023-04-13T17:09:25.492Z,1.67
2023-04-13T17:12:13.123Z,1.70
2023-04-13T17:15:04.186Z,2.38
2023-04-13T17:17:51.872Z,1.67
2023-04-13T17:20:40.121Z,1.52
2023-04-13T17:23:27.826Z,1.10
2023-04-13T17:26:18.371Z,1.02
2023-04-13T17:29:06.769Z,1.40
2023-04-13T17:31:55.081Z,1.67
2023-04-13T17:34:44.875Z,1.52
2023-04-13T17:37:32.760Z,1.27
2023-04-13T17:40:21.003Z,2.17
2023-04-13T17:43:09.386Z,5.05
2023-04-13T17:45:57.113Z,4.10
2023-04-13T17:48:45.036Z,3.08
2023-04-13T17:51:33.759Z,1.95
2023-04-13T17:54:21.354Z,2.45
2023-04-13T17:57:13.639Z,3.03
2023-04-13T18:00:02.302Z,2.65
2023-04-13T18:02:55.431Z,1.85
2023-04-13T18:05:44.824Z,2.50
2023-04-13T18:08:32.600Z,2.15
2023-04-13T18:11:20.293Z,2.83
2023-04-13T18:14:09.341Z,3.45
2023-04-13T18:16:57.018Z,2.60
2023-04-13T18:19:44.690Z,4.57
2023-04-13T18:22:36.215Z,2.72
2023-04-13T18:25:24.082Z,3.10
2023-04-13T18:28:11.844Z,2.55
2023-04-13T18:31:03.017Z,2.83
2023-04-13T18:33:50.646Z,2.67
2023-04-13T18:36:38.236Z,2.53
2023-04-13T18:39:26.201Z,2.55
2023-04-13T18:42:13.751Z,2.13
2023-04-13T18:45:01.382Z,1.85
2023-04-13T18:47:49.090Z,2.05
2023-04-13T18:50:37.370Z,1.02
2023-04-13T18:53:25.056Z,1.50
2023-04-13T18:56:12.672Z,1.00
2023-04-13T18:59:00.490Z,1.60
2023-04-13T19:01:48.072Z,1.65
2023-04-13T19:04:35.971Z,1.85
2023-04-13T19:07:23.700Z,1.30
2023-04-13T19:10:11.677Z,1.95
2023-04-13T19:12:59.673Z,2.50
2023-04-13T19:15:47.438Z,1.20
2023-04-13T19:18:35.345Z,1.17
2023-04-13T19:21:24.523Z,0.93
2023-04-13T19:24:13.508Z,1.65
2023-04-13T19:27:01.174Z,1.10
2023-04-13T19:29:51.591Z,2.58
2023-04-13T19:32:41.067Z,2.13
2023-04-13T19:35:29.326Z,3.00
2023-04-13T19:38:17.148Z,3.40
2023-04-13T19:41:04.666Z,1.88
2023-04-13T19:43:52.550Z,1.38
2023-04-13T19:46:41.075Z,1.00
2023-04-13T19:49:28.733Z,0.85
2023-04-13T19:52:17.789Z,2.42
2023-04-13T19:55:06.539Z,1.80
2023-04-13T19:57:54.516Z,0.80
2023-04-13T20:00:42.507Z,1.33
2023-04-13T20:03:30.447Z,1.90
2023-04-13T20:06:18.756Z,6.38
2023-04-13T20:09:12.109Z,7.15
2023-04-13T20:11:59.746Z,7.57
2023-04-13T20:14:48.504Z,5.03
2023-04-13T20:17:36.268Z,4.18
2023-04-13T20:20:24.579Z,5.10
2023-04-13T20:23:12.188Z,7.15
2023-04-13T20:26:00.893Z,4.72
2023-04-13T20:28:49.589Z,4.65
2023-04-13T20:31:39.266Z,4.70
2023-04-13T20:34:28.263Z,4.03
2023-04-13T20:37:18.697Z,3.63
2023-04-13T20:40:07.258Z,3.58
2023-04-13T20:42:56.692Z,4.97
2023-04-13T20:45:47.642Z,7.78
2023-04-13T20:51:30.069Z,5.90
2023-04-13T20:54:17.746Z,5.90
2023-04-13T20:57:05.917Z,5.00
2023-04-13T20:59:54.514Z,4.38
2023-04-13T21:02:43.345Z,5.18
2023-04-13T21:05:31.125Z,3.55
2023-04-13T21:08:18.941Z,4.97
2023-04-13T21:11:06.574Z,5.72
2023-04-13T21:13:54.260Z,5.75
2023-04-13T21:16:42.134Z,3.75
2023-04-13T21:19:29.887Z,4.15
2023-04-13T21:22:19.099Z,2.70
2023-04-13T21:25:07.310Z,2.28
2023-04-13T21:27:54.878Z,1.77
2023-04-13T21:30:42.477Z,1.73
2023-04-13T21:33:30.041Z,1.80
2023-04-13T21:39:08.932Z,2.67
2023-04-13T21:41:56.532Z,2.53
2023-04-13T21:44:44.059Z,2.65
2023-04-13T21:47:32.048Z,3.20
2023-04-13T21:50:21.116Z,2.60
2023-04-13T21:53:08.754Z,2.25
2023-04-13T21:55:56.675Z,1.38
2023-04-13T21:58:45.913Z,1.15
2023-04-13T22:01:33.553Z,0.85
2023-04-13T22:04:21.421Z,0.52
2023-04-13T22:07:09.047Z,0.60
2023-04-13T22:09:58.054Z,0.40
2023-04-13T22:12:46.491Z,0.88
2023-04-13T22:15:34.251Z,0.63
2023-04-13T22:18:22.033Z,0.40
2023-04-13T22:21:09.766Z,0.50
2023-04-13T22:23:57.393Z,0.75
2023-04-13T22:26:45.324Z,0.40
2023-04-13T22:29:35.437Z,0.30
2023-04-13T22:32:23.172Z,0.43
2023-04-13T22:35:11.600Z,0.38
2023-04-13T22:37:59.258Z,0.43
2023-04-13T22:40:46.923Z,0.22
2023-04-13T22:43:34.630Z,0.25
2023-04-13T22:46:23.276Z,0.30
2023-04-13T22:49:10.978Z,0.30
2023-04-13T22:52:00.414Z,0.30
2023-04-13T22:54:48.156Z,0.63
2023-04-13T22:57:35.853Z,0.82
2023-04-13T23:00:23.842Z,0.60
2023-04-13T23:03:14.746Z,1.10
2023-04-13T23:06:05.375Z,1.85
2023-04-13T23:08:55.763Z,1.63
2023-04-13T23:11:43.516Z,1.45
2023-04-13T23:14:31.266Z,1.33
2023-04-13T23:17:18.913Z,0.50
2023-04-13T23:20:10.946Z,0.70
2023-04-13T23:22:58.597Z,0.80
2023-04-13T23:25:50.578Z,0.75
2023-04-13T23:28:38.220Z,0.22
2023-04-13T23:31:26.044Z,0.38
2023-04-13T23:34:13.934Z,0.38
2023-04-13T23:37:01.440Z,0.77
2023-04-13T23:39:49.266Z,0.55
2023-04-13T23:42:37.086Z,0.90
2023-04-13T23:45:25.414Z,0.50
2023-04-13T23:48:13.134Z,0.47
2023-04-13T23:51:00.898Z,0.50
2023-04-13T23:53:48.406Z,0.60
2023-04-13T23:56:37.237Z,0.45
2023-04-13T23:59:25.069Z,0.70
